Time;durP1;ratioP1;P1;durP2;ratioP2;P2;SDS_P1;SDS_P2;PMS_P1;PMS_P2;Temp;Humidity;BMP_temperature;BMP_pressure;BME280_temperature;BME280_humidity;BME280_pressure;Samples;Min_cycle;Max_cycle;Signal;HPM_P1;HPM_P2
2021/12/23 00:01:26;;;;;;;;;;;-5.20;99.90;;;;;;5034318;28;20371;-62
2021/12/23 00:03:52;;;;;;;;;;;-5.20;99.90;;;;;;5035702;28;20381;-63
2021/12/23 00:06:17;;;;;;;;;;;;;;;;;;5016897;28;19913;-63
2021/12/23 00:08:43;;;;;;;;;;;-4.50;99.90;;;;;;5033487;28;19905;-63
2021/12/23 00:11:09;;;;;;;;;;;;;;;;;;5033886;28;20267;-63
2021/12/23 00:13:36;;;;;;;;;;;-4.80;99.90;;;;;;5034278;28;19905;-63
2021/12/23 00:16:04;;;;;;;;;;;-4.40;99.90;;;;;;5034414;28;20339;-62
2021/12/23 00:23:50;;;;;;;;;;;;;;;;;;5035091;28;20421;-65
2021/12/23 00:26:15;;;;;;;;;;;-5.80;99.90;;;;;;5034440;28;19909;-65
2021/12/23 00:28:41;;;;;;;;;;;-5.80;99.90;;;;;;5034089;28;19905;-64
2021/12/23 00:31:07;;;;;;;;;;;-4.90;99.90;;;;;;5033975;28;19916;-64
2021/12/23 00:33:34;;;;;;;;;;;;;;;;;;5034587;28;19916;-64
2021/12/23 00:36:00;;;;;;;;;;;-4.30;99.90;;;;;;5034427;28;20374;-65
2021/12/23 00:38:30;;;;;;;;;;;-4.20;99.90;;;;;;5034129;28;19909;-64
2021/12/23 00:40:58;;;;;;;;;;;-4.80;99.90;;;;;;5033852;28;19924;-64
2021/12/23 00:43:23;;;;;;;;;;;-5.00;99.90;;;;;;5033784;28;19905;-64
2021/12/23 00:45:49;;;;;;;;;;;-6.00;99.90;;;;;;5034049;28;20317;-64
2021/12/23 00:48:15;;;;;;;;;;;-4.10;99.90;;;;;;5016051;28;20417;-64
2021/12/23 00:50:41;;;;;;;;;;;-6.00;99.90;;;;;;5033601;28;19958;-64
2021/12/23 00:53:09;;;;;;;;;;;;;;;;;;5034078;28;20007;-64
2021/12/23 00:55:34;;;;;;;;;;;-5.30;99.90;;;;;;5033854;28;19912;-64
2021/12/23 00:58:00;;;;;;;;;;;;;;;;;;5033587;28;20363;-63
2021/12/23 01:00:26;;;;;;;;;;;;;;;;;;5032930;28;19909;-64
2021/12/23 01:02:52;;;;;;;;;;;-4.70;99.90;;;;;;5033773;28;19912;-64
2021/12/23 01:05:19;;;;;;;;;;;-3.90;99.90;;;;;;5033608;28;19909;-64
2021/12/23 01:07:45;;;;;;;;;;;-4.50;99.90;;;;;;5033683;28;19955;-64
2021/12/23 01:10:10;;;;;;;;;;;-3.90;99.90;;;;;;5015663;28;19905;-64
2021/12/23 01:12:47;;;;;;;;;;;-5.20;99.90;;;;;;5033835;28;19915;-64
2021/12/23 01:15:37;;;;;;;;;;;-4.50;99.90;;;;;;5033887;28;20290;-64
2021/12/23 01:18:13;;;;;;;;;;;-5.10;99.90;;;;;;5034180;28;19909;-64
2021/12/23 01:20:51;;;;;;;;;;;-5.10;99.90;;;;;;5033041;28;19948;-64
2021/12/23 01:23:17;;;;;;;;;;;-4.80;99.90;;;;;;5033366;28;19948;-64
2021/12/23 01:25:43;;;;;;;;;;;-5.00;99.90;;;;;;5033417;28;19951;-64
2021/12/23 01:28:08;;;;;;;;;;;;;;;;;;5032909;28;19925;-63
2021/12/23 01:30:37;;;;;;;;;;;-4.80;99.90;;;;;;5032455;28;19905;-63
2021/12/23 01:33:03;;;;;;;;;;;-4.00;99.90;;;;;;5033153;28;19909;-64
2021/12/23 01:35:29;;;;;;;;;;;-4.60;99.90;;;;;;5033014;28;19964;-64
2021/12/23 01:37:54;;;;;;;;;;;-5.40;99.90;;;;;;5033106;28;19956;-64
2021/12/23 01:40:20;;;;;;;;;;;-5.50;99.90;;;;;;5032141;28;19997;-64
2021/12/23 01:42:46;;;;;;;;;;;-5.30;99.90;;;;;;5033048;28;19905;-65
2021/12/23 01:45:13;;;;;;;;;;;-4.60;99.90;;;;;;5032795;28;20011;-65
2021/12/23 01:47:39;;;;;;;;;;;-5.00;99.90;;;;;;5033362;28;19979;-65
2021/12/23 01:50:05;;;;;;;;;;;-4.40;99.90;;;;;;5047079;28;20333;-63
2021/12/23 01:52:31;;;;;;;;;;;-5.00;99.90;;;;;;5035179;28;19944;-65
2021/12/23 01:54:56;;;;;;;;;;;-5.30;99.90;;;;;;5034417;28;19937;-65
2021/12/23 01:57:22;;;;;;;;;;;-5.10;99.90;;;;;;5033855;28;19913;-64
2021/12/23 01:59:48;;;;;;;;;;;-5.60;99.90;;;;;;5031326;28;20016;-64
2021/12/23 02:02:14;;;;;;;;;;;-4.10;99.90;;;;;;5018703;28;19944;-64
2021/12/23 02:04:39;;;;;;;;;;;-4.50;99.90;;;;;;5027800;28;19905;-63
2021/12/23 02:07:05;;;;;;;;;;;-4.70;99.90;;;;;;5018678;28;19910;-64
2021/12/23 02:09:30;;;;;;;;;;;-4.50;99.90;;;;;;5012481;28;19909;-63
2021/12/23 02:11:56;;;;;;;;;;;-3.50;99.90;;;;;;5013486;28;19909;-64
2021/12/23 02:14:22;;;;;;;;;;;-5.00;99.90;;;;;;5012540;28;19952;-64
2021/12/23 02:16:48;;;;;;;;;;;-4.90;99.90;;;;;;5012715;28;19913;-65
2021/12/23 02:19:14;;;;;;;;;;;;;;;;;;5011634;28;19916;-64
2021/12/23 02:21:41;;;;;;;;;;;-4.80;99.90;;;;;;5012198;28;19905;-64
2021/12/23 02:24:07;;;;;;;;;;;-4.80;99.90;;;;;;5012569;28;19913;-65
2021/12/23 02:26:33;;;;;;;;;;;;;;;;;;5012357;28;20326;-63
2021/12/23 02:28:58;;;;;;;;;;;-4.40;99.90;;;;;;5011470;28;19910;-64
2021/12/23 02:31:24;;;;;;;;;;;-4.10;99.90;;;;;;5026519;28;19920;-64
2021/12/23 02:33:49;;;;;;;;;;;-4.30;99.90;;;;;;5014059;28;19963;-63
2021/12/23 02:36:15;;;;;;;;;;;-3.40;99.90;;;;;;5032162;28;19916;-63
2021/12/23 02:38:40;;;;;;;;;;;-5.60;99.90;;;;;;5031657;28;20011;-63
2021/12/23 02:41:06;;;;;;;;;;;-4.80;99.90;;;;;;5032152;28;19917;-62
2021/12/23 02:43:31;;;;;;;;;;;-5.50;99.90;;;;;;5031280;28;19909;-61
2021/12/23 02:45:58;;;;;;;;;;;-6.00;99.90;;;;;;5031218;28;19909;-62
2021/12/23 02:48:25;;;;;;;;;;;-5.10;99.90;;;;;;5024263;28;19920;-63
2021/12/23 02:50:52;;;;;;;;;;;-6.10;99.90;;;;;;5013669;28;20320;-63
2021/12/23 02:53:18;;;;;;;;;;;-4.90;99.90;;;;;;5031753;28;20086;-63
2021/12/23 02:55:43;;;;;;;;;;;-5.00;99.90;;;;;;5031756;28;19992;-62
2021/12/23 02:58:09;;;;;;;;;;;-6.10;99.90;;;;;;5013677;28;19905;-63
2021/12/23 03:00:35;;;;;;;;;;;-5.00;99.90;;;;;;5030763;28;19909;-62
2021/12/23 03:03:01;;;;;;;;;;;;;;;;;;5031527;28;19916;-63
2021/12/23 03:05:27;;;;;;;;;;;-5.90;99.90;;;;;;5032630;28;19953;-63
2021/12/23 03:07:53;;;;;;;;;;;;;;;;;;5031751;28;19913;-63
2021/12/23 03:10:22;;;;;;;;;;;-5.70;99.90;;;;;;5013604;28;19955;-65
2021/12/23 03:12:48;;;;;;;;;;;-5.00;99.90;;;;;;5032098;28;19959;-63
2021/12/23 03:15:13;;;;;;;;;;;-5.70;99.90;;;;;;5031851;28;19941;-63
2021/12/23 03:17:39;;;;;;;;;;;-5.90;99.90;;;;;;5032126;28;19935;-63
2021/12/23 03:20:05;;;;;;;;;;;-5.50;99.90;;;;;;5013511;28;19912;-62
2021/12/23 03:22:30;;;;;;;;;;;-2.80;99.90;;;;;;5032185;28;19905;-62
2021/12/23 03:24:56;;;;;;;;;;;-4.50;99.90;;;;;;5032327;28;19912;-63
2021/12/23 03:27:21;;;;;;;;;;;-5.20;99.90;;;;;;5032085;28;20010;-63
2021/12/23 03:29:47;;;;;;;;;;;-5.20;99.90;;;;;;5030565;28;19909;-63
2021/12/23 03:32:12;;;;;;;;;;;-4.90;99.90;;;;;;5031337;28;19957;-62
2021/12/23 03:34:38;;;;;;;;;;;-4.90;99.90;;;;;;5031594;28;19916;-62
2021/12/23 03:37:04;;;;;;;;;;;-4.10;99.90;;;;;;5031293;28;19912;-61
2021/12/23 03:39:29;;;;;;;;;;;-4.50;99.90;;;;;;5031065;28;19913;-62
2021/12/23 03:41:55;;;;;;;;;;;-5.30;99.90;;;;;;5014132;28;19905;-62
2021/12/23 03:44:20;;;;;;;;;;;-4.10;99.90;;;;;;5031996;28;19909;-62
2021/12/23 03:46:46;;;;;;;;;;;-4.80;99.90;;;;;;5034935;28;20385;-62
2021/12/23 03:49:12;;;;;;;;;;;;;;;;;;5034681;28;19905;-62
2021/12/23 03:51:37;;;;;;;;;;;-5.10;99.90;;;;;;5034931;28;19951;-63
2021/12/23 03:54:03;;;;;;;;;;;-3.80;99.90;;;;;;5035136;28;19905;-62
2021/12/23 03:56:29;;;;;;;;;;;-4.80;99.90;;;;;;5042667;28;19909;-63
2021/12/23 03:58:55;;;;;;;;;;;-5.30;99.90;;;;;;5040968;28;19905;-62
2021/12/23 04:01:21;;;;;;;;;;;;;;;;;;5035455;28;20006;-62
2021/12/23 04:03:48;;;;;;;;;;;-5.30;99.90;;;;;;5035189;28;19998;-62
2021/12/23 04:06:13;;;;;;;;;;;-5.70;99.90;;;;;;5034712;28;19915;-63
2021/12/23 04:08:39;;;;;;;;;;;-4.90;99.90;;;;;;5034474;28;19924;-62
2021/12/23 04:11:04;;;;;;;;;;;-5.50;99.90;;;;;;5034365;28;20008;-61
2021/12/23 04:13:30;;;;;;;;;;;-3.60;99.90;;;;;;5034878;28;19992;-62
2021/12/23 04:15:56;;;;;;;;;;;;;;;;;;5034105;28;19904;-62
2021/12/23 04:18:22;;;;;;;;;;;-4.20;99.90;;;;;;5034002;28;19909;-64
2021/12/23 04:20:53;;;;;;;;;;;-4.50;99.90;;;;;;5033930;28;19916;-64
2021/12/23 04:23:26;;;;;;;;;;;-3.40;99.90;;;;;;5034534;28;20327;-64
2021/12/23 04:25:52;;;;;;;;;;;-4.20;99.90;;;;;;5034264;28;19905;-61
2021/12/23 04:28:17;;;;;;;;;;;-4.80;99.90;;;;;;5033828;28;19912;-64
2021/12/23 04:30:43;;;;;;;;;;;-2.80;99.90;;;;;;5033296;28;19966;-64
2021/12/23 04:33:09;;;;;;;;;;;-5.50;99.90;;;;;;5034205;28;19913;-64
2021/12/23 04:35:35;;;;;;;;;;;-4.50;99.90;;;;;;5016568;28;19905;-64
2021/12/23 04:38:00;;;;;;;;;;;-4.00;99.90;;;;;;5033982;28;19909;-64
2021/12/23 04:40:26;;;;;;;;;;;;;;;;;;5033432;28;19960;-64
2021/12/23 04:42:52;;;;;;;;;;;;;;;;;;5033614;28;19905;-63
2021/12/23 04:45:17;;;;;;;;;;;-4.30;99.90;;;;;;5033641;28;19913;-64
2021/12/23 04:47:43;;;;;;;;;;;-4.20;99.90;;;;;;5016237;28;20349;-61
2021/12/23 04:50:11;;;;;;;;;;;-4.70;99.90;;;;;;5033255;28;19915;-64
2021/12/23 04:52:37;;;;;;;;;;;-6.10;99.90;;;;;;5033922;28;19909;-64
2021/12/23 04:55:03;;;;;;;;;;;-3.70;99.90;;;;;;5033510;28;19978;-63
2021/12/23 04:57:29;;;;;;;;;;;-4.20;99.90;;;;;;5033885;28;20020;-64
2021/12/23 04:59:55;;;;;;;;;;;-2.40;99.90;;;;;;5032393;28;19933;-62
2021/12/23 05:02:20;;;;;;;;;;;-5.30;99.90;;;;;;5033685;28;19916;-58
2021/12/23 05:04:50;;;;;;;;;;;-4.90;99.90;;;;;;5033562;28;20398;-62
2021/12/23 05:07:16;;;;;;;;;;;;;;;;;;5033429;28;19959;-60
2021/12/23 05:09:41;;;;;;;;;;;-4.50;99.90;;;;;;5033243;28;19905;-62
2021/12/23 05:12:07;;;;;;;;;;;-5.90;99.90;;;;;;5033853;28;19909;-62
2021/12/23 05:14:33;;;;;;;;;;;;;;;;;;5033255;28;19913;-62
2021/12/23 05:16:58;;;;;;;;;;;-4.90;99.90;;;;;;5033506;28;20433;-62
2021/12/23 05:19:24;;;;;;;;;;;;;;;;;;5032635;28;19950;-62
2021/12/23 05:21:50;;;;;;;;;;;-5.90;99.90;;;;;;5033465;28;19905;-62
2021/12/23 05:24:15;;;;;;;;;;;-4.00;99.90;;;;;;5015832;28;19909;-64
2021/12/23 05:26:41;;;;;;;;;;;-4.10;99.90;;;;;;5033288;28;19917;-64
2021/12/23 05:29:07;;;;;;;;;;;;;;;;;;5032815;28;19917;-61
2021/12/23 05:31:32;;;;;;;;;;;-5.50;99.90;;;;;;5037010;28;19916;-63
2021/12/23 05:33:58;;;;;;;;;;;-5.10;99.90;;;;;;5036586;28;19913;-63
2021/12/23 05:36:23;;;;;;;;;;;-5.50;99.90;;;;;;5036240;28;19964;-63
2021/12/23 05:38:49;;;;;;;;;;;-5.30;99.90;;;;;;5035173;28;19911;-63
2021/12/23 05:41:14;;;;;;;;;;;-5.50;99.90;;;;;;5035335;28;19940;-63
2021/12/23 05:43:40;;;;;;;;;;;-4.40;99.90;;;;;;5035853;28;19916;-63
2021/12/23 05:46:05;;;;;;;;;;;-5.60;99.90;;;;;;5035743;28;19909;-63
2021/12/23 05:48:31;;;;;;;;;;;-6.20;99.90;;;;;;5034620;28;19920;-62
2021/12/23 05:50:56;;;;;;;;;;;-5.20;99.90;;;;;;5034486;28;19905;-64
2021/12/23 05:53:22;;;;;;;;;;;-4.90;99.90;;;;;;5034803;28;19912;-63
2021/12/23 05:55:47;;;;;;;;;;;-6.00;99.90;;;;;;5035010;28;19955;-63
2021/12/23 05:58:13;;;;;;;;;;;-5.00;99.90;;;;;;5034662;28;19944;-62
2021/12/23 06:00:38;;;;;;;;;;;-6.10;99.90;;;;;;5034577;28;19988;-62
2021/12/23 06:03:04;;;;;;;;;;;-5.50;99.90;;;;;;5034842;28;19916;-63
2021/12/23 06:05:33;;;;;;;;;;;-5.00;99.90;;;;;;5017413;28;19948;-63
2021/12/23 06:07:58;;;;;;;;;;;-5.70;99.90;;;;;;5032545;28;19967;-62
2021/12/23 06:10:24;;;;;;;;;;;-5.60;99.90;;;;;;5032043;28;20279;-62
2021/12/23 06:12:49;;;;;;;;;;;-5.50;99.90;;;;;;5032646;28;19913;-63
2021/12/23 06:15:15;;;;;;;;;;;-5.60;99.90;;;;;;5031808;28;19933;-63
2021/12/23 06:17:41;;;;;;;;;;;-5.00;99.90;;;;;;5032353;28;20282;-63
2021/12/23 06:20:07;;;;;;;;;;;-4.70;99.90;;;;;;5031705;28;19966;-62
2021/12/23 06:22:35;;;;;;;;;;;-5.90;99.90;;;;;;5032373;28;19905;-62
2021/12/23 06:25:01;;;;;;;;;;;-5.30;99.90;;;;;;5032673;28;19905;-63
2021/12/23 06:27:26;;;;;;;;;;;-5.10;99.90;;;;;;5032106;28;20018;-70
2021/12/23 06:29:52;;;;;;;;;;;;;;;;;;5031554;28;19952;-69
2021/12/23 06:32:18;;;;;;;;;;;-5.50;99.90;;;;;;5032381;28;20063;-69
2021/12/23 06:34:43;;;;;;;;;;;-5.40;99.90;;;;;;5032158;28;19909;-70
2021/12/23 06:37:09;;;;;;;;;;;-6.20;99.90;;;;;;5031431;28;19932;-70
2021/12/23 06:39:35;;;;;;;;;;;-5.20;99.90;;;;;;5030336;28;19925;-71
2021/12/23 06:42:01;;;;;;;;;;;-5.90;99.90;;;;;;5029128;28;20023;-61
2021/12/23 06:44:26;;;;;;;;;;;-5.50;99.90;;;;;;5021072;28;20503;-65
2021/12/23 06:46:52;;;;;;;;;;;-4.80;99.90;;;;;;5031292;28;19971;-74
2021/12/23 06:49:18;;;;;;;;;;;-5.00;99.90;;;;;;5032002;28;20334;-74
2021/12/23 06:51:44;;;;;;;;;;;-5.00;99.90;;;;;;5014757;28;19920;-71
2021/12/23 06:54:12;;;;;;;;;;;-5.20;99.90;;;;;;5032280;28;20009;-72
2021/12/23 06:56:38;;;;;;;;;;;-5.10;99.90;;;;;;5032296;28;19919;-72
2021/12/23 06:59:03;;;;;;;;;;;-4.90;99.90;;;;;;5030103;28;19921;-72
2021/12/23 07:01:29;;;;;;;;;;;-5.20;99.90;;;;;;5031078;28;19917;-72
2021/12/23 07:04:39;;;;;;;;;;;-4.70;99.90;;;;;;5031865;28;19909;-72
2021/12/23 07:06:56;;;;;;;;;;;-4.80;99.90;;;;;;5018944;28;20260;-72
2021/12/23 07:09:22;;;;;;;;;;;-5.30;99.90;;;;;;5038904;28;20381;-73
2021/12/23 07:11:48;;;;;;;;;;;;;;;;;;5051823;28;19908;-67
2021/12/23 07:14:13;;;;;;;;;;;-5.30;99.90;;;;;;5052017;28;19916;-65
2021/12/23 07:16:40;;;;;;;;;;;-5.10;99.90;;;;;;5051002;28;20382;-61
2021/12/23 07:19:06;;;;;;;;;;;-5.50;99.90;;;;;;5033816;28;19916;-65
2021/12/23 07:21:31;;;;;;;;;;;-5.00;99.90;;;;;;5041788;28;19976;-66
2021/12/23 07:23:57;;;;;;;;;;;-3.90;99.90;;;;;;5054644;28;19916;-66
2021/12/23 07:26:23;;;;;;;;;;;-4.20;99.90;;;;;;5036155;28;19973;-66
2021/12/23 07:28:48;;;;;;;;;;;-5.90;99.90;;;;;;5045214;28;19909;-66
2021/12/23 07:31:14;;;;;;;;;;;-5.00;99.90;;;;;;5035503;28;19909;-66
2021/12/23 07:33:39;;;;;;;;;;;-4.50;99.90;;;;;;5035421;28;20264;-67
2021/12/23 07:36:05;;;;;;;;;;;-4.30;99.90;;;;;;5034955;28;20363;-67
2021/12/23 07:38:31;;;;;;;;;;;-4.40;99.90;;;;;;5032713;28;20495;-67
2021/12/23 07:40:57;;;;;;;;;;;-4.60;99.90;;;;;;4997455;28;19917;-67
2021/12/23 07:46:02;;;;;;;;;;;-5.00;99.90;;;;;;5034426;28;19905;-68
2021/12/23 07:48:27;;;;;;;;;;;-4.00;99.90;;;;;;5034785;28;19913;-65
2021/12/23 07:50:56;;;;;;;;;;;-5.50;99.90;;;;;;5034532;28;19959;-66
2021/12/23 07:53:22;;;;;;;;;;;-5.10;99.90;;;;;;5035358;28;20345;-65
2021/12/23 07:55:47;;;;;;;;;;;-4.40;99.90;;;;;;5034773;28;20027;-65
2021/12/23 07:58:13;;;;;;;;;;;-4.30;99.90;;;;;;5030638;28;20267;-65
2021/12/23 08:00:38;;;;;;;;;;;-3.90;99.90;;;;;;5033860;28;20367;-60
2021/12/23 08:03:04;;;;;;;;;;;-2.90;99.90;;;;;;5034844;28;19909;-65
2021/12/23 08:05:33;;;;;;;;;;;-3.70;99.90;;;;;;5035043;28;19909;-65
2021/12/23 08:07:59;;;;;;;;;;;-4.00;99.90;;;;;;5034819;28;20002;-66
2021/12/23 08:10:25;;;;;;;;;;;-4.20;99.90;;;;;;5034399;28;20367;-67
2021/12/23 08:12:50;;;;;;;;;;;-3.20;99.90;;;;;;5034708;28;20394;-66
2021/12/23 08:15:16;;;;;;;;;;;-2.50;99.90;;;;;;5034499;28;19955;-66
2021/12/23 08:17:41;;;;;;;;;;;-2.30;99.90;;;;;;5034826;28;19955;-66
2021/12/23 08:20:07;;;;;;;;;;;-1.60;99.90;;;;;;5034153;28;19959;-67
2021/12/23 08:22:33;;;;;;;;;;;-2.30;99.90;;;;;;5016941;28;19904;-67
2021/12/23 08:24:59;;;;;;;;;;;-3.10;99.90;;;;;;5034333;28;20382;-68
2021/12/23 08:27:27;;;;;;;;;;;-2.10;99.90;;;;;;5034405;28;19919;-68
2021/12/23 08:29:53;;;;;;;;;;;-1.80;99.90;;;;;;5032389;28;19909;-67
2021/12/23 08:32:19;;;;;;;;;;;-0.90;99.90;;;;;;5034278;28;19909;-67
2021/12/23 08:34:45;;;;;;;;;;;-1.50;99.90;;;;;;5017102;28;19962;-67
2021/12/23 08:37:12;;;;;;;;;;;-0.70;99.90;;;;;;5034330;28;19913;-66
2021/12/23 08:39:41;;;;;;;;;;;-0.40;99.90;;;;;;5033342;28;20628;-65
2021/12/23 08:42:07;;;;;;;;;;;-0.70;99.90;;;;;;5034985;28;20383;-66
2021/12/23 08:44:33;;;;;;;;;;;-1.50;99.90;;;;;;5033774;28;19908;-67
2021/12/23 08:46:59;;;;;;;;;;;-2.50;99.90;;;;;;5033281;28;20374;-67
2021/12/23 08:49:25;;;;;;;;;;;-1.60;99.90;;;;;;5033854;28;19927;-66
2021/12/23 08:51:50;;;;;;;;;;;-2.30;99.90;;;;;;5016534;28;19920;-67
2021/12/23 08:54:16;;;;;;;;;;;-1.90;99.90;;;;;;5034502;28;19911;-67
2021/12/23 08:56:42;;;;;;;;;;;-2.90;99.90;;;;;;5034560;28;19909;-66
2021/12/23 08:59:07;;;;;;;;;;;-2.50;99.90;;;;;;5015925;28;20386;-67
2021/12/23 09:01:33;;;;;;;;;;;-1.70;99.90;;;;;;5034141;28;19905;-66
2021/12/23 09:03:59;;;;;;;;;;;-2.10;99.90;;;;;;5034102;28;20004;-66
2021/12/23 09:06:24;;;;;;;;;;;-2.30;99.90;;;;;;5034146;28;20027;-67
2021/12/23 09:08:50;;;;;;;;;;;-2.70;99.90;;;;;;5033877;28;19909;-66
2021/12/23 09:11:16;;;;;;;;;;;-1.60;99.90;;;;;;5033722;28;19913;-67
2021/12/23 09:13:44;;;;;;;;;;;-2.70;99.90;;;;;;5016128;28;19959;-67
2021/12/23 09:16:10;;;;;;;;;;;-2.50;99.90;;;;;;5033345;28;19920;-66
2021/12/23 09:18:35;;;;;;;;;;;-2.00;99.90;;;;;;5033616;28;19909;-65
2021/12/23 09:21:01;;;;;;;;;;;-1.70;99.90;;;;;;5033728;28;19915;-66
2021/12/23 09:23:27;;;;;;;;;;;-2.10;99.90;;;;;;5033622;28;20283;-66
2021/12/23 09:25:53;;;;;;;;;;;-1.30;99.90;;;;;;5033827;28;20278;-67
2021/12/23 09:33:38;;;;;;;;;;;-2.10;99.90;;;;;;5033692;28;20382;-67
2021/12/23 09:36:04;;;;;;;;;;;-2.90;99.90;;;;;;5033231;28;19909;-67
2021/12/23 09:38:30;;;;;;;;;;;-1.90;99.90;;;;;;5033099;28;19905;-73
2021/12/23 09:40:59;;;;;;;;;;;-0.10;99.90;;;;;;5032920;28;19924;-66
2021/12/23 09:43:26;;;;;;;;;;;-0.40;99.90;;;;;;5033086;28;19913;-67
2021/12/23 09:45:52;;;;;;;;;;;-1.50;99.90;;;;;;5025800;28;19909;-69
2021/12/23 09:48:21;;;;;;;;;;;-0.70;99.90;;;;;;5028965;28;19978;-67
2021/12/23 09:50:47;;;;;;;;;;;-0.20;99.90;;;;;;5032619;28;19989;-68
2021/12/23 09:53:15;;;;;;;;;;;-0.20;99.90;;;;;;4998631;28;19909;-67
2021/12/23 09:55:41;;;;;;;;;;;0.00;99.90;;;;;;5033161;28;19912;-68
2021/12/23 09:58:06;;;;;;;;;;;-0.60;99.90;;;;;;5034921;28;19999;-67
2021/12/23 10:00:34;;;;;;;;;;;-0.40;99.90;;;;;;5042278;28;19968;-66
2021/12/23 10:02:59;;;;;;;;;;;-1.30;99.90;;;;;;5032359;28;19916;-68
2021/12/23 10:05:29;;;;;;;;;;;-1.70;99.90;;;;;;5030613;28;19909;-68
2021/12/23 10:07:55;;;;;;;;;;;-0.30;99.90;;;;;;5047535;28;20311;-66
2021/12/23 10:10:29;;;;;;;;;;;-0.20;99.90;;;;;;5048196;28;19916;-67
2021/12/23 10:32:36;;;;;;;;;;;0.70;99.90;;;;;;5032154;28;19905;-67
2021/12/23 10:38:04;;;;;;;;;;;1.00;99.90;;;;;;5045185;28;19959;-68
2021/12/23 10:40:30;;;;;;;;;;;0.60;99.90;;;;;;5028907;28;19912;-65
2021/12/23 10:42:56;;;;;;;;;;;1.10;99.90;;;;;;5016021;28;19994;-74
2021/12/23 10:45:22;;;;;;;;;;;0.60;99.90;;;;;;5031942;28;19964;-67
2021/12/23 10:48:06;;;;;;;;;;;1.70;99.90;;;;;;5026520;28;19917;-67
2021/12/23 10:50:43;;;;;;;;;;;0.70;99.90;;;;;;5031272;28;19928;-66
2021/12/23 10:53:13;;;;;;;;;;;1.70;99.90;;;;;;5029634;28;19966;-67
2021/12/23 10:58:23;;;;;;;;;;;2.30;99.90;;;;;;5027301;28;20322;-67
2021/12/23 11:00:51;;;;;;;;;;;1.30;99.90;;;;;;5038147;28;19909;-68
2021/12/23 11:03:28;;;;;;;;;;;1.40;99.90;;;;;;5020217;28;19916;-68
2021/12/23 11:06:01;;;;;;;;;;;1.20;99.90;;;;;;5036248;28;19909;-69
2021/12/23 11:38:13;;;;;;;;;;;2.60;99.90;;;;;;5038504;28;19909;-69
2021/12/23 11:41:03;;;;;;;;;;;1.10;99.90;;;;;;5038380;28;20019;-69
2021/12/23 11:43:31;;;;;;;;;;;2.40;99.90;;;;;;5038714;28;19920;-67
2021/12/23 11:45:57;;;;;;;;;;;1.90;99.90;;;;;;5040585;28;19955;-66
2021/12/23 11:48:23;;;;;;;;;;;2.80;99.90;;;;;;5040406;28;19909;-74
2021/12/23 11:51:06;;;;;;;;;;;3.10;99.90;;;;;;5040745;28;19909;-74
2021/12/23 11:53:32;;;;;;;;;;;1.80;99.90;;;;;;5019776;28;20009;-73
2021/12/23 11:55:59;;;;;;;;;;;1.70;99.90;;;;;;5018628;28;20321;-74
2021/12/23 11:58:25;;;;;;;;;;;2.60;99.90;;;;;;5018326;28;19956;-75
2021/12/23 12:01:04;;;;;;;;;;;2.40;99.90;;;;;;5019116;28;19979;-74
2021/12/23 12:03:30;;;;;;;;;;;2.60;99.90;;;;;;5035191;28;19920;-74
2021/12/23 12:06:18;;;;;;;;;;;3.00;99.90;;;;;;5033270;28;19913;-74
2021/12/23 12:08:43;;;;;;;;;;;3.40;99.90;;;;;;5032325;28;19917;-74
2021/12/23 12:11:15;;;;;;;;;;;2.60;99.90;;;;;;5035940;28;20383;-74
2021/12/23 12:13:40;;;;;;;;;;;3.50;99.90;;;;;;5034351;28;19905;-74
2021/12/23 12:16:25;;;;;;;;;;;3.50;99.90;;;;;;5036012;28;19916;-74
2021/12/23 12:18:50;;;;;;;;;;;3.80;99.90;;;;;;5032856;28;19913;-75
2021/12/23 12:21:28;;;;;;;;;;;3.70;99.90;;;;;;5033045;28;19909;-74
2021/12/23 12:24:11;;;;;;;;;;;3.50;99.90;;;;;;5033817;28;19916;-74
2021/12/23 12:26:49;;;;;;;;;;;4.30;99.90;;;;;;5031315;28;19999;-74
2021/12/23 12:29:18;;;;;;;;;;;4.00;99.90;;;;;;5030355;28;19909;-74
2021/12/23 12:31:44;;;;;;;;;;;3.10;99.90;;;;;;5032984;28;19917;-74
2021/12/23 12:34:10;;;;;;;;;;;3.50;99.90;;;;;;5033709;28;19917;-74
2021/12/23 12:36:50;;;;;;;;;;;4.60;99.90;;;;;;5033477;28;20295;-75
2021/12/23 12:39:24;;;;;;;;;;;4.00;99.90;;;;;;5031428;28;19921;-74
2021/12/23 12:41:51;;;;;;;;;;;3.60;99.90;;;;;;5036343;28;19936;-75
2021/12/23 12:44:32;;;;;;;;;;;3.90;99.90;;;;;;5048063;28;19987;-74
2021/12/23 12:47:03;;;;;;;;;;;3.70;99.90;;;;;;5051920;28;19917;-74
2021/12/23 12:49:33;;;;;;;;;;;3.90;99.90;;;;;;5044570;28;20355;-74
2021/12/23 12:52:17;;;;;;;;;;;4.40;99.90;;;;;;5033597;28;19917;-74
2021/12/23 12:54:48;;;;;;;;;;;3.50;99.90;;;;;;5031855;28;19917;-74
2021/12/23 12:57:14;;;;;;;;;;;4.90;99.90;;;;;;5036240;28;19916;-75
2021/12/23 12:59:43;;;;;;;;;;;4.10;99.90;;;;;;5054366;28;19980;-70
2021/12/23 13:02:20;;;;;;;;;;;4.00;99.90;;;;;;5036362;28;19913;-77
2021/12/23 13:04:51;;;;;;;;;;;4.20;99.90;;;;;;5039747;28;19905;-74
2021/12/23 13:07:25;;;;;;;;;;;4.30;99.90;;;;;;5034421;28;19913;-68
2021/12/23 13:09:55;;;;;;;;;;;4.50;99.90;;;;;;5032802;28;19909;-69
2021/12/23 13:12:30;;;;;;;;;;;4.30;99.90;;;;;;5033431;28;19920;-69
2021/12/23 13:15:16;;;;;;;;;;;4.70;99.90;;;;;;5032735;28;19905;-69
2021/12/23 13:18:04;;;;;;;;;;;4.90;99.90;;;;;;5032592;28;19905;-76
2021/12/23 13:20:33;;;;;;;;;;;4.70;99.90;;;;;;5023121;28;20272;-74
2021/12/23 13:22:59;;;;;;;;;;;5.10;99.90;;;;;;5030981;28;19959;-79
2021/12/23 13:25:25;;;;;;;;;;;4.30;99.90;;;;;;5032295;28;19908;-75
2021/12/23 13:27:51;;;;;;;;;;;4.10;99.90;;;;;;5031978;28;19913;-75
2021/12/23 13:30:16;;;;;;;;;;;;;;;;;;5031457;28;19928;-75
2021/12/23 13:32:55;;;;;;;;;;;4.90;99.90;;;;;;5031962;28;20000;-76
2021/12/23 13:35:21;;;;;;;;;;;4.40;99.90;;;;;;5029863;28;19905;-74
2021/12/23 13:37:46;;;;;;;;;;;4.90;99.90;;;;;;5031971;28;19916;-74
2021/12/23 13:40:24;;;;;;;;;;;4.20;99.90;;;;;;5031258;28;19920;-74
2021/12/23 13:42:49;;;;;;;;;;;3.10;99.90;;;;;;5031810;28;19909;-74
2021/12/23 13:45:15;;;;;;;;;;;4.60;99.90;;;;;;5031694;28;19932;-75
2021/12/23 13:47:41;;;;;;;;;;;4.90;99.90;;;;;;5031428;28;20008;-76
2021/12/23 13:50:07;;;;;;;;;;;5.00;99.90;;;;;;5031083;28;19913;-75
2021/12/23 13:52:35;;;;;;;;;;;3.40;99.90;;;;;;5031903;28;20389;-74
2021/12/23 13:55:03;;;;;;;;;;;4.20;99.90;;;;;;5031645;28;19909;-73
2021/12/23 13:57:30;;;;;;;;;;;4.20;99.90;;;;;;5031842;28;20517;-73
2021/12/23 13:59:56;;;;;;;;;;;3.60;99.90;;;;;;5031391;28;19911;-74
2021/12/23 14:02:23;;;;;;;;;;;4.00;99.90;;;;;;5035310;28;19944;-73
2021/12/23 14:04:56;;;;;;;;;;;4.40;99.90;;;;;;5031393;28;19917;-73
2021/12/23 14:07:21;;;;;;;;;;;5.60;99.90;;;;;;5028122;28;19909;-75
2021/12/23 14:09:51;;;;;;;;;;;4.60;99.90;;;;;;5030688;28;19920;-75
2021/12/23 14:12:19;;;;;;;;;;;4.60;99.90;;;;;;5028956;28;19905;-76
2021/12/23 14:14:49;;;;;;;;;;;4.70;99.90;;;;;;5031493;28;19983;-75
2021/12/23 14:17:15;;;;;;;;;;;;;;;;;;5031061;28;19940;-76
2021/12/23 14:20:08;;;;;;;;;;;5.00;99.90;;;;;;5021231;28;19983;-80
2021/12/23 14:25:10;;;;;;;;;;;4.50;99.90;;;;;;5031153;28;19915;-76
2021/12/23 14:27:36;;;;;;;;;;;3.80;99.90;;;;;;5021088;28;19913;-75
2021/12/23 14:30:03;;;;;;;;;;;3.70;99.90;;;;;;5030390;28;19949;-75
2021/12/23 14:32:29;;;;;;;;;;;3.20;99.90;;;;;;5030869;28;19920;-75
2021/12/23 14:34:54;;;;;;;;;;;4.40;99.90;;;;;;5030828;28;19916;-75
2021/12/23 14:37:20;;;;;;;;;;;3.20;99.90;;;;;;5030762;28;19909;-74
2021/12/23 14:39:45;;;;;;;;;;;5.00;99.90;;;;;;5030268;28;19917;-74
2021/12/23 14:42:16;;;;;;;;;;;5.30;99.90;;;;;;5032151;28;19909;-74
2021/12/23 14:44:42;;;;;;;;;;;4.50;99.90;;;;;;5032457;28;19913;-75
2021/12/23 14:47:22;;;;;;;;;;;4.50;99.90;;;;;;5031405;28;20279;-75
2021/12/23 14:52:29;;;;;;;;;;;4.80;99.90;;;;;;5032025;28;19925;-74
2021/12/23 14:54:57;;;;;;;;;;;4.20;99.90;;;;;;5031924;28;19912;-74
2021/12/23 14:57:28;;;;;;;;;;;3.80;99.90;;;;;;5031834;28;20371;-74
2021/12/23 14:59:55;;;;;;;;;;;5.50;99.90;;;;;;5031190;28;19909;-74
2021/12/23 15:02:21;;;;;;;;;;;;;;;;;;5031636;28;19913;-75
2021/12/23 15:05:00;;;;;;;;;;;4.20;99.90;;;;;;5031710;28;19901;-74
2021/12/23 15:07:26;;;;;;;;;;;5.30;99.90;;;;;;5032158;28;19909;-76
2021/12/23 15:09:58;;;;;;;;;;;4.40;99.90;;;;;;5030982;28;19927;-75
2021/12/23 15:12:25;;;;;;;;;;;4.80;99.90;;;;;;5031722;28;20012;-76
2021/12/23 15:14:54;;;;;;;;;;;4.60;99.90;;;;;;5031785;28;20359;-75
2021/12/23 15:17:27;;;;;;;;;;;5.80;99.90;;;;;;5031769;28;20363;-75
2021/12/23 15:19:53;;;;;;;;;;;4.30;99.90;;;;;;5013397;28;19905;-76
2021/12/23 15:22:23;;;;;;;;;;;4.00;99.90;;;;;;5031604;28;20322;-76
2021/12/23 15:25:00;;;;;;;;;;;5.30;99.90;;;;;;5031596;28;19905;-74
2021/12/23 15:27:30;;;;;;;;;;;5.90;99.90;;;;;;5031607;28;19959;-74
2021/12/23 15:30:00;;;;;;;;;;;5.50;99.90;;;;;;5032460;28;19909;-76
2021/12/23 15:32:28;;;;;;;;;;;5.60;99.90;;;;;;5032213;28;19909;-75
2021/12/23 15:35:10;;;;;;;;;;;5.80;99.90;;;;;;5033515;28;19963;-76
2021/12/23 15:37:37;;;;;;;;;;;4.30;99.90;;;;;;5031911;28;19909;-76
2021/12/23 15:40:23;;;;;;;;;;;5.00;99.90;;;;;;5033287;28;19913;-75
2021/12/23 15:42:49;;;;;;;;;;;6.00;99.90;;;;;;5033570;28;19955;-74
2021/12/23 15:45:15;;;;;;;;;;;5.80;99.90;;;;;;5034269;28;19920;-74
2021/12/23 15:47:41;;;;;;;;;;;5.00;99.90;;;;;;5030801;28;19920;-74